Time;durP1;ratioP1;P1;durP2;ratioP2;P2;SDS_P1;SDS_P2;PMS_P1;PMS_P2;Temp;Humidity;BMP_temperature;BMP_pressure;BME280_temperature;BME280_humidity;BME280_pressure;Samples;Min_cycle;Max_cycle;Signal;HPM_P1;HPM_P2
2023/04/08 00:00:16;;;;;;;20.42;10.07;;;6.20;98.20;;;;;;5032467;28;20025;-75
2023/04/08 00:02:42;;;;;;;21.23;8.40;;;6.20;98.40;;;;;;5033622;28;20048;-75
2023/04/08 00:05:08;;;;;;;15.82;8.25;;;6.10;98.60;;;;;;5032675;28;20037;-76
2023/04/08 00:07:35;;;;;;;15.10;6.82;;;6.10;98.80;;;;;;5054298;28;20028;-76
2023/04/08 00:10:00;;;;;;;11.45;5.57;;;6.10;99.00;;;;;;5065030;28;20032;-75
2023/04/08 00:12:26;;;;;;;10.20;5.35;;;6.10;99.30;;;;;;5076416;28;20031;-74
2023/04/08 00:14:51;;;;;;;9.30;4.78;;;6.00;99.50;;;;;;5078803;28;20028;-75
2023/04/08 00:17:17;;;;;;;10.25;5.35;;;6.00;99.70;;;;;;5081475;28;20438;-76
2023/04/08 00:19:43;;;;;;;8.48;5.05;;;6.00;99.90;;;;;;5078831;28;20021;-75
2023/04/08 00:22:09;;;;;;;6.07;4.05;;;6.00;99.90;;;;;;5090224;28;20112;-75
2023/04/08 00:24:35;;;;;;;5.50;3.53;;;6.00;99.90;;;;;;5039094;28;20021;-76
2023/04/08 00:27:01;;;;;;;6.38;3.85;;;6.00;99.90;;;;;;5036976;28;20052;-75
2023/04/08 00:29:28;;;;;;;6.80;4.70;;;5.90;99.90;;;;;;5033772;28;20052;-76
2023/04/08 00:31:53;;;;;;;4.55;3.33;;;5.90;99.90;;;;;;5032792;28;20384;-77
2023/04/08 00:34:19;;;;;;;7.70;4.65;;;5.90;99.90;;;;;;5031803;28;20126;-76
2023/04/08 00:36:46;;;;;;;5.65;4.05;;;5.90;99.90;;;;;;5034259;28;20120;-76
2023/04/08 00:39:12;;;;;;;5.40;3.60;;;5.90;99.90;;;;;;5053879;28;20018;-74
2023/04/08 00:41:38;;;;;;;5.50;4.10;;;5.90;99.90;;;;;;5031843;28;20419;-75
2023/04/08 00:44:04;;;;;;;5.30;3.88;;;5.90;99.90;;;;;;5031446;28;20056;-76
2023/04/08 00:46:34;;;;;;;4.75;3.60;;;5.80;99.90;;;;;;5032370;28;20029;-75
2023/04/08 00:49:01;;;;;;;4.90;2.90;;;5.80;99.90;;;;;;5031902;28;20026;-75
2023/04/08 00:51:28;;;;;;;3.92;3.00;;;5.80;99.90;;;;;;5031665;28;20028;-75
2023/04/08 00:53:54;;;;;;;3.22;2.70;;;5.80;99.90;;;;;;5031684;28;20100;-75
2023/04/08 00:56:21;;;;;;;3.03;2.53;;;5.80;99.90;;;;;;5031137;28;20061;-75
2023/04/08 00:58:46;;;;;;;4.00;2.92;;;5.80;99.90;;;;;;5042727;28;20025;-76
2023/04/08 01:01:31;;;;;;;3.63;2.72;;;5.80;99.90;;;;;;5051798;28;20021;-76
2023/04/08 01:04:08;;;;;;;5.72;3.15;;;5.80;99.90;;;;;;5055471;28;20080;-76
2023/04/08 01:06:54;;;;;;;3.05;2.60;;;5.70;99.90;;;;;;5048620;28;20061;-75
2023/04/08 01:09:24;;;;;;;3.38;2.47;;;5.70;99.90;;;;;;5057182;28;20295;-75
2023/04/08 01:11:51;;;;;;;4.18;2.60;;;5.70;99.90;;;;;;5055584;28;20020;-76
2023/04/08 01:14:22;;;;;;;4.68;3.38;;;5.70;99.90;;;;;;5052945;28;20033;-75
2023/04/08 01:16:48;;;;;;;4.32;3.47;;;5.60;99.90;;;;;;5055768;28;20097;-74
2023/04/08 01:19:26;;;;;;;3.47;2.85;;;5.60;99.90;;;;;;5053606;28;20045;-75
2023/04/08 01:21:53;;;;;;;3.70;2.90;;;5.60;99.90;;;;;;5056661;28;20409;-76
2023/04/08 01:24:26;;;;;;;2.92;2.63;;;5.60;99.90;;;;;;5055186;28;20033;-76
2023/04/08 01:26:55;;;;;;;2.80;2.35;;;5.50;99.90;;;;;;5057103;28;20047;-76
2023/04/08 01:29:23;;;;;;;4.10;3.13;;;5.50;99.90;;;;;;5048740;28;20029;-75
2023/04/08 01:31:50;;;;;;;3.53;2.25;;;5.50;99.90;;;;;;5040228;28;20045;-75
2023/04/08 01:34:19;;;;;;;5.32;2.90;;;5.40;99.90;;;;;;5038776;28;20113;-75
2023/04/08 01:36:46;;;;;;;3.63;3.03;;;5.40;99.90;;;;;;5042332;28;20037;-75
2023/04/08 01:39:17;;;;;;;4.07;2.88;;;5.40;99.90;;;;;;5071711;28;20025;-76
2023/04/08 01:41:44;;;;;;;4.55;2.45;;;5.40;99.90;;;;;;5081540;28;20020;-76
2023/04/08 01:44:14;;;;;;;4.30;2.85;;;5.30;99.90;;;;;;5080892;28;20029;-75
2023/04/08 01:46:41;;;;;;;4.50;3.75;;;5.30;99.90;;;;;;5054267;28;20078;-75
2023/04/08 01:49:07;;;;;;;3.92;3.15;;;5.30;99.90;;;;;;5044053;28;20026;-76
2023/04/08 01:51:33;;;;;;;5.47;2.80;;;5.30;99.90;;;;;;5046664;28;20025;-76
2023/04/08 01:53:59;;;;;;;4.03;3.08;;;5.30;99.90;;;;;;5045220;28;20022;-75
2023/04/08 01:56:28;;;;;;;3.97;3.03;;;5.30;99.90;;;;;;5046946;28;20025;-76
2023/04/08 01:58:59;;;;;;;5.72;3.78;;;5.30;99.90;;;;;;5040502;28;20071;-75
2023/04/08 02:01:27;;;;;;;4.18;3.35;;;5.20;99.90;;;;;;5036519;28;20026;-75
2023/04/08 02:03:56;;;;;;;5.75;4.30;;;5.20;99.90;;;;;;5036381;28;20074;-75
2023/04/08 02:06:22;;;;;;;5.28;3.97;;;5.20;99.90;;;;;;5043230;28;20100;-76
2023/04/08 02:08:48;;;;;;;4.35;3.15;;;5.20;99.90;;;;;;5079177;28;20029;-75
2023/04/08 02:11:14;;;;;;;4.57;3.20;;;5.20;99.90;;;;;;5079793;28;20056;-74
2023/04/08 02:13:40;;;;;;;2.75;2.50;;;5.10;99.90;;;;;;5085948;28;20108;-76
2023/04/08 02:16:19;;;;;;;2.97;2.67;;;5.10;99.90;;;;;;5088022;28;20619;-76
2023/04/08 02:18:55;;;;;;;4.05;3.65;;;5.10;99.90;;;;;;5079513;28;20074;-74
2023/04/08 02:21:23;;;;;;;4.90;3.50;;;5.10;99.90;;;;;;5056913;28;20108;-75
2023/04/08 02:23:50;;;;;;;3.90;3.17;;;5.10;99.90;;;;;;5042236;28;20358;-74
2023/04/08 02:26:17;;;;;;;4.65;3.22;;;5.10;99.90;;;;;;5034403;28;20021;-74
2023/04/08 02:28:44;;;;;;;4.90;3.08;;;5.10;99.90;;;;;;5035864;28;20470;-74
2023/04/08 02:31:14;;;;;;;3.63;2.85;;;5.10;99.90;;;;;;5035517;28;20083;-74
2023/04/08 02:33:41;;;;;;;4.28;3.60;;;5.10;99.90;;;;;;5038820;28;20029;-75
2023/04/08 02:36:08;;;;;;;5.57;3.83;;;5.10;99.90;;;;;;5036256;28;20033;-76
2023/04/08 02:38:34;;;;;;;4.95;4.20;;;5.10;99.90;;;;;;5060823;28;20025;-75
2023/04/08 02:41:00;;;;;;;5.97;3.95;;;5.10;99.90;;;;;;5076158;28;20100;-75
2023/04/08 02:43:30;;;;;;;4.82;3.67;;;5.10;99.90;;;;;;5073958;28;20028;-76
2023/04/08 02:45:56;;;;;;;4.10;3.30;;;5.10;99.90;;;;;;5054218;28;20022;-75
2023/04/08 02:48:22;;;;;;;4.78;3.28;;;5.10;99.90;;;;;;5035231;28;20116;-74
2023/04/08 02:50:47;;;;;;;4.75;3.08;;;5.10;99.90;;;;;;5034444;28;20021;-75
2023/04/08 02:53:13;;;;;;;3.70;2.75;;;5.10;99.90;;;;;;5034373;28;20410;-76
2023/04/08 02:55:39;;;;;;;3.70;3.17;;;5.20;99.90;;;;;;5033259;28;20033;-75
2023/04/08 02:58:04;;;;;;;4.78;3.42;;;5.20;99.90;;;;;;5035130;28;20057;-75
2023/04/08 03:00:30;;;;;;;5.13;3.63;;;5.30;99.90;;;;;;5034167;28;20013;-75
2023/04/08 03:02:56;;;;;;;4.85;3.95;;;5.30;99.90;;;;;;5034662;28;20036;-74
2023/04/08 03:05:21;;;;;;;5.45;3.38;;;5.30;99.90;;;;;;5034183;28;20096;-74
2023/04/08 03:07:47;;;;;;;5.32;3.35;;;5.30;99.90;;;;;;5058034;28;20139;-74
2023/04/08 03:10:13;;;;;;;4.50;3.30;;;5.40;99.90;;;;;;5068606;28;20070;-75
2023/04/08 03:12:38;;;;;;;6.75;5.05;;;5.40;99.90;;;;;;5066502;28;20126;-74
2023/04/08 03:15:05;;;;;;;6.18;4.55;;;5.40;99.90;;;;;;5064335;28;20081;-76
2023/04/08 03:17:33;;;;;;;6.20;4.30;;;5.40;99.90;;;;;;5063816;28;20027;-75
2023/04/08 03:20:00;;;;;;;4.35;3.92;;;5.40;99.90;;;;;;5064373;28;20490;-75
2023/04/08 03:22:25;;;;;;;5.30;3.72;;;5.40;99.90;;;;;;5059420;28;20021;-76
2023/04/08 03:24:51;;;;;;;5.18;3.95;;;5.50;99.90;;;;;;5054944;28;20033;-75
2023/04/08 03:27:17;;;;;;;4.50;3.75;;;5.50;99.90;;;;;;5057311;28;20405;-76
2023/04/08 03:29:44;;;;;;;6.65;4.05;;;5.50;99.90;;;;;;5057966;28;20139;-75
2023/04/08 03:32:10;;;;;;;6.70;4.00;;;5.60;99.90;;;;;;5056064;28;20021;-76
2023/04/08 03:34:36;;;;;;;5.22;3.75;;;5.50;99.90;;;;;;5053122;28;20062;-76
2023/04/08 03:37:01;;;;;;;4.85;3.63;;;5.60;99.90;;;;;;5054427;28;20112;-74
2023/04/08 03:39:27;;;;;;;5.10;4.03;;;5.60;99.90;;;;;;5074916;28;20032;-75
2023/04/08 03:41:53;;;;;;;5.88;4.22;;;5.60;99.90;;;;;;5080787;28;20527;-75
2023/04/08 03:44:19;;;;;;;5.60;4.28;;;5.60;99.90;;;;;;5036571;28;20033;-76
2023/04/08 03:46:44;;;;;;;6.30;4.93;;;5.70;99.90;;;;;;5055909;28;20025;-75
2023/04/08 03:49:10;;;;;;;4.20;3.80;;;5.70;99.90;;;;;;5053963;28;20116;-76
2023/04/08 03:51:36;;;;;;;3.75;3.33;;;5.70;99.90;;;;;;5054665;28;20048;-74
2023/04/08 03:54:01;;;;;;;4.00;3.38;;;5.70;99.90;;;;;;5053552;28;20032;-75
2023/04/08 03:56:27;;;;;;;8.57;6.38;;;5.70;99.90;;;;;;5054407;28;20025;-75
2023/04/08 03:58:52;;;;;;;7.45;5.53;;;5.80;99.90;;;;;;5052290;28;20029;-75
2023/04/08 04:01:18;;;;;;;6.90;5.22;;;5.70;99.90;;;;;;5053879;28;20039;-75
2023/04/08 04:03:44;;;;;;;8.82;5.82;;;5.70;99.90;;;;;;5054081;28;20025;-75
2023/04/08 04:06:09;;;;;;;7.60;4.90;;;5.80;99.90;;;;;;5047733;28;20026;-75
2023/04/08 04:08:35;;;;;;;6.32;4.43;;;5.70;99.90;;;;;;5059063;28;20060;-75
2023/04/08 04:11:01;;;;;;;5.10;3.95;;;5.70;99.90;;;;;;5072856;28;20021;-75
2023/04/08 04:13:26;;;;;;;5.22;4.25;;;5.70;99.90;;;;;;5076705;28;20028;-76
2023/04/08 04:15:52;;;;;;;7.00;5.07;;;5.70;99.90;;;;;;5062156;28;20030;-75
2023/04/08 04:18:18;;;;;;;7.25;6.05;;;5.60;99.90;;;;;;5033031;28;20022;-75
2023/04/08 04:20:44;;;;;;;8.07;5.50;;;5.60;99.90;;;;;;5032093;28;20062;-76
2023/04/08 04:23:09;;;;;;;6.82;4.45;;;5.70;99.90;;;;;;5030445;28;20025;-75
2023/04/08 04:25:35;;;;;;;6.00;4.72;;;5.70;99.90;;;;;;5031311;28;20044;-75
2023/04/08 04:28:01;;;;;;;5.60;4.10;;;5.70;99.90;;;;;;5032718;28;20475;-75
2023/04/08 04:30:28;;;;;;;3.83;3.05;;;5.80;99.90;;;;;;5032208;28;20029;-76
2023/04/08 04:32:53;;;;;;;4.00;3.60;;;5.80;99.90;;;;;;5033164;28;20501;-75
2023/04/08 04:35:19;;;;;;;8.35;5.47;;;5.90;99.90;;;;;;5031431;28;20025;-75
2023/04/08 04:37:44;;;;;;;9.13;6.72;;;5.90;99.90;;;;;;5049021;28;20094;-74
2023/04/08 04:40:10;;;;;;;8.95;6.50;;;5.90;99.90;;;;;;5064921;28;20038;-75
2023/04/08 04:42:36;;;;;;;9.07;7.15;;;5.90;99.90;;;;;;5070805;28;20020;-77
2023/04/08 04:45:02;;;;;;;9.85;6.97;;;5.90;99.90;;;;;;5051124;28;20334;-76
2023/04/08 04:47:27;;;;;;;6.97;5.88;;;5.90;99.90;;;;;;5051488;28;20027;-75
2023/04/08 04:49:53;;;;;;;8.40;6.35;;;6.00;99.90;;;;;;5052150;28;20075;-75
2023/04/08 04:52:19;;;;;;;10.07;7.05;;;6.00;99.90;;;;;;5051707;28;20028;-76
2023/04/08 04:54:45;;;;;;;11.52;8.18;;;6.10;99.90;;;;;;5058871;28;20028;-75
2023/04/08 04:57:11;;;;;;;12.98;9.65;;;6.10;99.90;;;;;;5052235;28;20120;-75
2023/04/08 04:59:36;;;;;;;14.07;10.38;;;6.20;99.90;;;;;;5052832;28;20025;-76
2023/04/08 05:02:02;;;;;;;10.13;8.23;;;6.20;99.90;;;;;;5050893;28;20140;-76
2023/04/08 05:04:28;;;;;;;13.15;9.10;;;6.20;99.90;;;;;;5050272;28;20043;-75
2023/04/08 05:06:54;;;;;;;12.82;7.72;;;6.20;99.90;;;;;;5046490;28;20037;-75
2023/04/08 05:09:20;;;;;;;8.88;7.90;;;6.20;99.90;;;;;;5063672;28;20099;-75
2023/04/08 05:11:45;;;;;;;9.95;7.93;;;6.30;99.90;;;;;;5072095;28;20031;-76
2023/04/08 05:14:11;;;;;;;11.20;8.18;;;6.30;99.90;;;;;;5052132;28;20029;-75
2023/04/08 05:16:38;;;;;;;11.18;8.02;;;6.30;99.90;;;;;;5044584;28;20029;-75
2023/04/08 05:19:03;;;;;;;11.77;8.93;;;6.40;99.90;;;;;;5052057;28;20067;-76
2023/04/08 05:21:29;;;;;;;15.02;10.38;;;6.40;99.90;;;;;;5052204;28;20025;-76
2023/04/08 05:23:55;;;;;;;13.65;9.55;;;6.40;99.90;;;;;;5050363;28;20029;-76
2023/04/08 05:26:21;;;;;;;9.98;7.90;;;6.50;99.90;;;;;;5052271;28;20044;-75
2023/04/08 05:28:48;;;;;;;11.05;8.27;;;6.50;99.90;;;;;;5052621;28;20021;-76
2023/04/08 05:31:17;;;;;;;9.90;7.38;;;6.50;99.90;;;;;;5051827;28;20029;-76
2023/04/08 05:33:43;;;;;;;9.25;7.00;;;6.60;99.90;;;;;;5053896;28;20048;-76
2023/04/08 05:36:13;;;;;;;10.32;6.97;;;6.70;99.90;;;;;;5048734;28;20494;-75
2023/04/08 05:38:39;;;;;;;9.10;6.95;;;6.80;99.90;;;;;;5051634;28;20374;-76
2023/04/08 05:41:05;;;;;;;12.55;8.02;;;6.80;99.90;;;;;;5077859;28;20066;-76
2023/04/08 05:43:34;;;;;;;13.88;10.10;;;6.90;99.90;;;;;;5073654;28;20427;-76
2023/04/08 05:46:08;;;;;;;12.98;10.40;;;6.90;99.90;;;;;;5069581;28;20021;-75
2023/04/08 05:48:34;;;;;;;12.95;9.18;;;7.00;99.90;;;;;;5051897;28;20037;-76
2023/04/08 05:51:00;;;;;;;11.63;8.75;;;7.00;99.90;;;;;;5043376;28;20049;-74
2023/04/08 05:53:25;;;;;;;14.90;10.50;;;7.10;99.90;;;;;;5042112;28;20029;-76
2023/04/08 05:55:51;;;;;;;12.60;9.45;;;7.10;99.90;;;;;;5041861;28;20026;-76
2023/04/08 05:58:17;;;;;;;11.73;9.27;;;7.10;99.90;;;;;;5040880;28;20048;-76
2023/04/08 06:00:42;;;;;;;15.50;11.05;;;7.10;99.90;;;;;;5039918;28;20030;-76
2023/04/08 06:03:08;;;;;;;13.95;11.05;;;7.20;99.90;;;;;;5036767;28;20512;-75
2023/04/08 06:05:34;;;;;;;16.05;11.55;;;7.20;99.90;;;;;;5048720;28;20033;-76
2023/04/08 06:07:59;;;;;;;12.00;9.32;;;7.30;99.90;;;;;;5055495;28;20025;-75
2023/04/08 06:10:25;;;;;;;17.80;12.57;;;7.40;99.90;;;;;;5078241;28;20029;-76
2023/04/08 06:12:51;;;;;;;18.95;12.63;;;7.40;99.90;;;;;;5086244;28;20372;-75
2023/04/08 06:15:17;;;;;;;17.00;11.15;;;7.40;99.90;;;;;;5078401;28;20021;-75
2023/04/08 06:17:43;;;;;;;16.90;11.57;;;7.40;99.90;;;;;;5080058;28;20025;-74
2023/04/08 06:20:09;;;;;;;16.80;11.70;;;7.40;99.90;;;;;;5074470;28;20029;-76
2023/04/08 06:22:35;;;;;;;15.15;11.57;;;7.40;99.90;;;;;;5039031;28;20036;-74
2023/04/08 06:25:01;;;;;;;15.15;11.23;;;7.40;99.90;;;;;;5037257;28;20033;-76
2023/04/08 06:27:27;;;;;;;14.43;10.40;;;7.40;99.90;;;;;;5036393;28;20036;-76
2023/04/08 06:29:54;;;;;;;16.05;11.32;;;7.40;99.90;;;;;;5036044;28;20028;-75
2023/04/08 06:32:20;;;;;;;15.30;11.95;;;7.30;99.90;;;;;;5034556;28;20049;-74
2023/04/08 06:34:46;;;;;;;14.00;11.88;;;7.30;99.90;;;;;;5034513;28;20109;-76
2023/04/08 06:37:12;;;;;;;17.50;11.13;;;7.30;99.90;;;;;;5045932;28;20036;-76
2023/04/08 06:39:38;;;;;;;14.95;10.38;;;7.30;99.90;;;;;;5066198;28;20093;-76
2023/04/08 06:42:03;;;;;;;14.57;10.57;;;7.20;99.90;;;;;;5072565;28;20099;-74
2023/04/08 06:44:29;;;;;;;15.23;11.95;;;7.20;99.90;;;;;;5073807;28;20028;-75
2023/04/08 06:46:55;;;;;;;17.13;10.88;;;7.20;99.90;;;;;;5074762;28;20025;-75
2023/04/08 06:49:20;;;;;;;19.25;12.77;;;7.20;99.90;;;;;;5073776;28;20037;-76
2023/04/08 06:51:46;;;;;;;16.55;11.45;;;7.20;99.90;;;;;;5074072;28;20020;-75
2023/04/08 06:54:11;;;;;;;14.77;11.00;;;7.20;99.90;;;;;;5048187;28;20029;-76
2023/04/08 06:56:37;;;;;;;16.92;11.63;;;7.20;99.90;;;;;;5049965;28;20040;-76
2023/04/08 06:59:06;;;;;;;19.77;13.90;;;7.20;99.90;;;;;;5053455;28;20028;-75
2023/04/08 07:01:31;;;;;;;17.40;12.73;;;7.30;99.90;;;;;;5053444;28;20021;-75
2023/04/08 07:03:57;;;;;;;18.98;12.43;;;7.30;99.90;;;;;;5053096;28;20032;-76
2023/04/08 07:06:23;;;;;;;16.55;12.55;;;7.30;99.90;;;;;;5046076;28;20071;-77
2023/04/08 07:08:49;;;;;;;16.38;11.85;;;7.30;99.90;;;;;;5061747;28;20381;-77
2023/04/08 07:11:15;;;;;;;14.50;9.93;;;7.30;99.90;;;;;;5035936;28;20506;-76
2023/04/08 07:13:41;;;;;;;12.95;9.77;;;7.30;99.90;;;;;;5033203;28;20021;-76
2023/04/08 07:16:09;;;;;;;12.05;9.70;;;7.40;99.90;;;;;;5032559;28;20036;-77
2023/04/08 07:18:40;;;;;;;16.33;12.82;;;7.50;99.90;;;;;;5033815;28;20029;-77
2023/04/08 07:21:06;;;;;;;16.42;11.82;;;7.60;99.90;;;;;;5033548;28;20018;-76
2023/04/08 07:23:34;;;;;;;17.35;12.10;;;7.70;99.90;;;;;;5033520;28;20032;-76
2023/04/08 07:26:06;;;;;;;17.50;12.77;;;7.70;99.90;;;;;;5033114;28;20040;-76
2023/04/08 07:28:32;;;;;;;18.75;13.82;;;7.70;99.90;;;;;;5042104;28;20040;-76
2023/04/08 07:31:19;;;;;;;15.98;10.35;;;7.60;99.90;;;;;;5054370;28;20033;-75
2023/04/08 07:33:45;;;;;;;17.80;13.10;;;7.60;99.90;;;;;;5054880;28;20521;-75
2023/04/08 07:36:12;;;;;;;15.65;10.60;;;7.60;99.80;;;;;;5049531;28;20322;-75
2023/04/08 07:38:38;;;;;;;11.43;8.98;;;7.70;99.60;;;;;;5061672;28;20081;-77
2023/04/08 07:41:04;;;;;;;14.73;9.95;;;7.70;99.50;;;;;;5086137;28;20078;-77
2023/04/08 07:43:33;;;;;;;15.55;11.23;;;7.60;98.60;;;;;;5069482;28;20029;-76
2023/04/08 07:46:03;;;;;;;12.20;9.70;;;7.60;97.40;;;;;;5055842;28;20359;-76
2023/04/08 07:48:30;;;;;;;13.48;10.30;;;7.60;96.60;;;;;;5054315;28;20017;-76
2023/04/08 07:50:55;;;;;;;13.90;9.63;;;7.70;95.00;;;;;;5053820;28;20017;-76
2023/04/08 07:53:23;;;;;;;14.18;9.40;;;7.70;92.90;;;;;;5052712;28;20021;-76
2023/04/08 07:55:49;;;;;;;12.18;8.95;;;7.60;93.00;;;;;;5053317;28;20049;-76
2023/04/08 07:58:16;;;;;;;10.85;8.35;;;7.60;92.80;;;;;;5051069;28;20037;-75
2023/04/08 08:00:41;;;;;;;14.73;9.57;;;7.60;92.60;;;;;;5039564;28;20021;-76
2023/04/08 08:03:07;;;;;;;12.23;8.90;;;7.60;91.90;;;;;;5055354;28;20017;-75
2023/04/08 08:05:32;;;;;;;12.15;8.85;;;7.60;91.80;;;;;;5056272;28;20025;-76
2023/04/08 08:08:01;;;;;;;13.88;9.23;;;7.70;91.50;;;;;;5062100;28;20082;-76
2023/04/08 08:10:26;;;;;;;14.43;10.00;;;7.70;91.30;;;;;;5063049;28;20032;-76
2023/04/08 08:12:52;;;;;;;15.50;10.10;;;7.70;90.80;;;;;;5059656;28;20035;-74
2023/04/08 08:15:23;;;;;;;10.43;8.30;;;7.70;90.40;;;;;;5053562;28;20024;-76
2023/04/08 08:17:48;;;;;;;11.30;8.00;;;7.60;89.80;;;;;;5057760;28;20457;-77
2023/04/08 08:20:17;;;;;;;12.07;9.02;;;7.60;90.20;;;;;;5056263;28;20029;-76
2023/04/08 08:22:46;;;;;;;13.15;8.90;;;7.50;89.60;;;;;;5057321;28;20112;-76
2023/04/08 08:25:12;;;;;;;12.60;9.32;;;7.30;89.10;;;;;;5053250;28;20580;-76
2023/04/08 08:27:40;;;;;;;12.95;8.85;;;7.30;90.10;;;;;;5051875;28;20079;-76
2023/04/08 08:30:06;;;;;;;14.48;9.23;;;7.20;90.70;;;;;;5038628;28;20026;-76
2023/04/08 08:32:35;;;;;;;9.48;7.30;;;7.20;90.80;;;;;;5033743;28;20448;-75
2023/04/08 08:35:01;;;;;;;9.68;7.03;;;7.10;91.20;;;;;;5031213;28;20075;-76
2023/04/08 08:37:26;;;;;;;12.65;9.10;;;7.10;91.60;;;;;;5045485;28;20321;-75
2023/04/08 08:39:52;;;;;;;12.82;8.85;;;7.20;91.40;;;;;;5064879;28;20098;-75
2023/04/08 08:42:22;;;;;;;12.05;9.02;;;7.10;90.70;;;;;;5073557;28;20024;-76
2023/04/08 08:44:48;;;;;;;13.93;8.98;;;7.00;90.10;;;;;;5072830;28;20025;-75
2023/04/08 08:47:15;;;;;;;11.35;8.18;;;6.80;90.30;;;;;;5037586;28;20064;-76
2023/04/08 08:49:41;;;;;;;15.05;8.90;;;6.80;91.10;;;;;;5031676;28;20029;-74
2023/04/08 08:52:07;;;;;;;13.70;8.70;;;6.70;91.20;;;;;;5032048;28;20075;-75
2023/04/08 08:54:33;;;;;;;14.70;9.27;;;6.70;91.50;;;;;;5032438;28;20040;-76
2023/04/08 08:56:58;;;;;;;13.60;9.10;;;6.70;91.90;;;;;;5033540;28;20543;-75
2023/04/08 08:59:24;;;;;;;12.65;8.70;;;6.70;92.10;;;;;;5033610;28;20025;-76
2023/04/08 09:01:50;;;;;;;15.20;10.55;;;6.70;92.30;;;;;;5034150;28;20060;-77
2023/04/08 09:04:18;;;;;;;11.30;8.88;;;6.90;92.80;;;;;;5032951;28;20025;-75
2023/04/08 09:06:49;;;;;;;13.55;9.38;;;6.90;93.10;;;;;;5036335;28;20067;-76
2023/04/08 09:09:16;;;;;;;13.95;10.50;;;6.90;93.60;;;;;;5073890;28;20124;-76
2023/04/08 09:11:44;;;;;;;15.35;10.95;;;6.90;93.60;;;;;;5075234;28;20032;-75
2023/04/08 09:14:23;;;;;;;15.20;10.57;;;6.90;93.90;;;;;;5076247;28;20036;-77
2023/04/08 09:16:50;;;;;;;12.70;9.25;;;6.70;93.60;;;;;;5087935;28;20017;-77
2023/04/08 09:19:16;;;;;;;16.23;9.88;;;6.60;93.80;;;;;;5064215;28;20037;-76
2023/04/08 09:21:42;;;;;;;14.50;9.38;;;6.50;94.00;;;;;;5042203;28;20028;-76
2023/04/08 09:24:09;;;;;;;18.10;9.65;;;6.50;94.50;;;;;;5053823;28;20024;-75
2023/04/08 09:26:40;;;;;;;16.15;9.60;;;6.50;94.50;;;;;;5056952;28;20029;-77
2023/04/08 09:29:09;;;;;;;12.65;8.27;;;6.40;94.10;;;;;;5056042;28;20112;-76
2023/04/08 09:31:41;;;;;;;12.45;8.48;;;6.40;94.60;;;;;;5056751;28;20025;-76
2023/04/08 09:34:18;;;;;;;12.52;8.23;;;6.40;94.70;;;;;;5055605;28;20028;-76
2023/04/08 09:36:44;;;;;;;12.15;8.82;;;6.40;93.90;;;;;;5047604;28;20565;-75
2023/04/08 09:39:10;;;;;;;11.70;7.82;;;6.30;94.00;;;;;;5062540;28;20465;-75
2023/04/08 09:41:38;;;;;;;15.05;8.48;;;6.30;94.30;;;;;;5077044;28;20031;-76
2023/04/08 09:44:11;;;;;;;11.65;7.75;;;6.30;94.20;;;;;;5075914;28;20031;-76
2023/04/08 09:46:42;;;;;;;14.30;8.70;;;6.40;94.20;;;;;;5073971;28;20076;-75
2023/04/08 09:49:12;;;;;;;13.40;8.38;;;6.40;94.00;;;;;;5075670;28;20025;-75
2023/04/08 09:52:06;;;;;;;11.95;7.72;;;6.50;93.60;;;;;;5075991;28;20497;-76
2023/04/08 09:54:35;;;;;;;13.52;8.77;;;6.50;93.60;;;;;;5035349;28;20030;-77
2023/04/08 09:57:07;;;;;;;11.15;7.95;;;6.50;93.30;;;;;;5035457;28;20112;-76
2023/04/08 09:59:35;;;;;;;13.35;7.68;;;6.60;93.00;;;;;;5037706;28;20094;-76
2023/04/08 10:02:10;;;;;;;13.75;8.50;;;6.70;93.20;;;;;;5036834;28;20045;-76
2023/04/08 10:04:40;;;;;;;13.00;8.63;;;6.90;93.20;;;;;;5036220;28;20463;-77
2023/04/08 10:07:08;;;;;;;13.23;8.00;;;7.20;93.00;;;;;;5053378;28;20334;-75
2023/04/08 10:09:34;;;;;;;12.75;7.38;;;7.40;92.40;;;;;;5067344;28;20107;-76
2023/04/08 10:12:03;;;;;;;13.55;8.10;;;7.70;91.90;;;;;;5075767;28;20074;-75
2023/04/08 10:14:28;;;;;;;12.65;9.07;;;8.00;91.30;;;;;;5073462;28;20047;-76
2023/04/08 10:17:24;;;;;;;10.82;7.70;;;8.30;90.60;;;;;;5075701;28;20096;-76
2023/04/08 10:19:50;;;;;;;13.02;8.85;;;8.70;89.70;;;;;;5075621;28;20021;-76
2023/04/08 10:22:27;;;;;;;11.50;8.70;;;9.10;86.50;;;;;;5075105;28;20478;-77
2023/04/08 10:25:18;;;;;;;12.52;9.05;;;9.40;85.30;;;;;;5076622;28;20020;-74
2023/04/08 10:27:44;;;;;;;12.45;7.55;;;9.60;84.00;;;;;;5054098;28;20062;-76
2023/04/08 10:30:28;;;;;;;15.32;10.02;;;9.70;84.30;;;;;;5055342;28;20035;-76
2023/04/08 10:33:00;;;;;;;11.85;8.43;;;9.80;81.40;;;;;;5055468;28;20029;-76
2023/04/08 10:35:35;;;;;;;15.02;9.60;;;9.40;82.20;;;;;;5054089;28;20037;-75
2023/04/08 10:38:01;;;;;;;11.63;8.65;;;9.10;83.60;;;;;;5057640;28;20531;-76
2023/04/08 10:40:27;;;;;;;13.63;9.23;;;8.80;85.00;;;;;;5070697;28;20113;-76
2023/04/08 10:42:57;;;;;;;13.15;9.85;;;8.70;85.40;;;;;;5067413;28;20021;-76
2023/04/08 10:45:23;;;;;;;12.75;8.93;;;8.50;86.40;;;;;;5045201;28;20034;-75
2023/04/08 10:47:48;;;;;;;14.77;10.15;;;8.40;87.50;;;;;;5035571;28;20446;-75
2023/04/08 10:50:16;;;;;;;10.48;8.77;;;8.30;87.30;;;;;;5035747;28;20040;-76
2023/04/08 10:52:49;;;;;;;13.65;10.35;;;8.30;87.90;;;;;;5035447;28;20513;-75
2023/04/08 10:55:17;;;;;;;11.32;9.50;;;8.20;87.60;;;;;;5034440;28;20030;-76
2023/04/08 10:57:42;;;;;;;12.55;8.90;;;8.00;88.10;;;;;;5035989;28;20033;-76
2023/04/08 11:00:16;;;;;;;14.18;10.40;;;7.90;89.30;;;;;;5043710;28;20021;-76
2023/04/08 11:02:42;;;;;;;13.23;10.65;;;7.90;89.80;;;;;;5055785;28;20078;-75
2023/04/08 11:05:09;;;;;;;13.00;10.30;;;7.80;90.00;;;;;;5055059;28;20104;-75
2023/04/08 11:07:41;;;;;;;13.70;9.82;;;7.60;90.30;;;;;;5053870;28;20050;-77
2023/04/08 11:10:08;;;;;;;15.20;11.55;;;7.50;90.50;;;;;;5033932;28;20505;-75
2023/04/08 11:12:37;;;;;;;14.77;11.20;;;7.50;91.00;;;;;;5035037;28;20033;-74
2023/04/08 11:15:04;;;;;;;17.27;11.73;;;7.30;91.50;;;;;;5034370;28;20026;-75
2023/04/08 11:17:33;;;;;;;12.77;10.25;;;7.30;91.80;;;;;;5036356;28;20097;-76
2023/04/08 11:20:01;;;;;;;13.90;10.93;;;7.20;92.20;;;;;;5034019;28;20028;-75
2023/04/08 11:22:27;;;;;;;10.82;8.98;;;7.20;92.40;;;;;;5034421;28;20044;-76
2023/04/08 11:24:55;;;;;;;17.40;12.15;;;7.10;92.80;;;;;;5033546;28;20033;-75
2023/04/08 11:27:24;;;;;;;15.07;11.68;;;7.10;92.90;;;;;;5035076;28;20118;-76
2023/04/08 11:29:51;;;;;;;14.10;9.93;;;7.10;93.10;;;;;;5035038;28;20029;-76
2023/04/08 11:32:17;;;;;;;14.35;10.63;;;7.10;93.30;;;;;;5034125;28;20566;-75
2023/04/08 11:34:43;;;;;;;15.20;11.05;;;7.00;93.70;;;;;;5035745;28;20033;-75
2023/04/08 11:37:09;;;;;;;13.30;9.82;;;6.90;94.30;;;;;;5043915;28;20039;-76
2023/04/08 11:39:42;;;;;;;15.05;11.02;;;6.90;94.40;;;;;;5066188;28;20035;-76
2023/04/08 11:42:07;;;;;;;16.75;11.50;;;6.80;95.00;;;;;;5075262;28;20024;-76
2023/04/08 11:44:34;;;;;;;14.23;10.02;;;6.70;95.40;;;;;;5074297;28;20047;-75
2023/04/08 11:47:01;;;;;;;15.73;10.93;;;6.70;95.80;;;;;;5074823;28;20025;-75
2023/04/08 11:49:27;;;;;;;12.65;9.68;;;6.90;95.50;;;;;;5070852;28;20024;-75
2023/04/08 11:51:55;;;;;;;12.45;9.80;;;6.90;95.60;;;;;;5054898;28;20066;-75
2023/04/08 11:54:32;;;;;;;15.07;11.95;;;6.90;95.50;;;;;;5052199;28;20037;-74
2023/04/08 11:56:58;;;;;;;12.77;10.13;;;7.00;95.30;;;;;;5054351;28;20028;-75
2023/04/08 11:59:25;;;;;;;16.15;10.65;;;6.90;95.20;;;;;;5054015;28;20044;-75
2023/04/08 12:01:52;;;;;;;15.38;10.23;;;6.90;95.40;;;;;;5054515;28;20121;-76
2023/04/08 12:04:17;;;;;;;13.55;9.65;;;6.90;95.40;;;;;;5055643;28;20024;-76
2023/04/08 12:06:45;;;;;;;15.50;9.98;;;7.00;94.90;;;;;;5059798;28;20025;-75
2023/04/08 12:09:13;;;;;;;11.50;8.40;;;6.90;94.60;;;;;;5075629;28;20029;-76
2023/04/08 12:11:39;;;;;;;13.57;9.35;;;6.80;94.80;;;;;;5077124;28;20017;-75
2023/04/08 12:14:05;;;;;;;13.27;10.25;;;6.80;94.70;;;;;;5080879;28;20027;-75
2023/04/08 12:16:30;;;;;;;11.13;8.98;;;6.70;94.30;;;;;;5079453;28;20060;-75
2023/04/08 12:18:56;;;;;;;10.88;8.65;;;6.70;94.60;;;;;;5077310;28;20126;-76
2023/04/08 12:21:22;;;;;;;9.77;7.70;;;6.60;94.80;;;;;;5076059;28;20020;-77
2023/04/08 12:23:48;;;;;;;12.48;8.73;;;6.60;95.00;;;;;;5059685;28;20029;-75
2023/04/08 12:26:13;;;;;;;11.77;8.75;;;6.70;94.50;;;;;;5033294;28;20022;-76
2023/04/08 12:28:39;;;;;;;11.43;8.73;;;6.70;94.80;;;;;;5033045;28;20121;-75
2023/04/08 12:31:05;;;;;;;9.90;8.25;;;6.70;94.30;;;;;;5034006;28;20045;-76
2023/04/08 12:33:31;;;;;;;9.20;7.55;;;6.70;94.30;;;;;;5034031;28;20453;-76
2023/04/08 12:35:58;;;;;;;11.10;8.73;;;6.70;94.80;;;;;;5032693;28;20078;-75
2023/04/08 12:38:24;;;;;;;14.60;7.97;;;6.80;94.70;;;;;;5056633;28;20017;-76
2023/04/08 12:40:50;;;;;;;9.60;8.55;;;6.90;94.80;;;;;;5051438;28;20021;-76
2023/04/08 12:43:16;;;;;;;11.90;8.43;;;6.90;94.10;;;;;;5033378;28;20101;-75
2023/04/08 12:45:42;;;;;;;10.10;7.32;;;6.90;94.10;;;;;;5032620;28;20052;-76
2023/04/08 12:48:08;;;;;;;10.68;7.13;;;6.80;94.50;;;;;;5033149;28;20025;-76